Time;durP1;ratioP1;P1;durP2;ratioP2;P2;SDS_P1;SDS_P2;PMS_P1;PMS_P2;Temp;Humidity;BMP_temperature;BMP_pressure;BME280_temperature;BME280_humidity;BME280_pressure;Samples;Min_cycle;Max_cycle;Signal;HPM_P1;HPM_P2
2023/05/13 00:00:13;;;;;;;19.27;11.73;;;10.50;99.90;;;;;;5030654;28;20301;-49
2023/05/13 00:02:38;;;;;;;15.23;11.70;;;10.40;99.90;;;;;;5033767;28;20548;-49
2023/05/13 00:05:05;;;;;;;14.87;10.90;;;10.40;99.90;;;;;;5030324;28;20538;-49
2023/05/13 00:07:30;;;;;;;13.50;11.70;;;10.30;99.90;;;;;;5032317;28;20222;-49
2023/05/13 00:09:56;;;;;;;18.60;11.63;;;10.30;99.90;;;;;;5029243;28;20473;-49
2023/05/13 00:12:21;;;;;;;19.47;11.33;;;10.20;99.90;;;;;;5031517;28;20222;-49
2023/05/13 00:14:47;;;;;;;12.90;11.13;;;10.20;99.90;;;;;;5031117;28;20187;-49
2023/05/13 00:17:13;;;;;;;14.90;10.60;;;10.20;99.90;;;;;;5030348;28;20231;-50
2023/05/13 00:19:38;;;;;;;17.03;11.67;;;10.10;99.90;;;;;;5032053;28;20179;-49
2023/05/13 00:22:04;;;;;;;16.20;10.83;;;10.10;99.90;;;;;;5028710;28;20555;-49
2023/05/13 00:24:30;;;;;;;14.43;12.20;;;10.10;99.90;;;;;;5032517;28;20643;-50
2023/05/13 00:26:55;;;;;;;15.30;11.13;;;10.10;1.00;;;;;;5025717;28;20191;-50
2023/05/13 00:29:21;;;;;;;11.90;10.40;;;10.00;1.00;;;;;;5032276;28;20589;-49
2023/05/13 00:31:46;;;;;;;19.17;11.63;;;10.00;1.00;;;;;;5031691;28;20249;-50
2023/05/13 00:34:12;;;;;;;15.03;11.63;;;10.00;1.00;;;;;;5033448;28;20634;-50
2023/05/13 00:36:37;;;;;;;12.47;11.17;;;10.00;1.00;;;;;;5031761;28;20212;-49
2023/05/13 00:39:03;;;;;;;19.80;11.50;;;9.90;1.00;;;;;;5031591;28;20210;-50
2023/05/13 00:41:29;;;;;;;14.90;11.43;;;9.90;1.00;;;;;;5031071;28;20274;-50
2023/05/13 00:43:55;;;;;;;16.63;11.17;;;9.90;1.00;;;;;;5030527;28;20183;-50
2023/05/13 00:46:22;;;;;;;18.70;12.33;;;9.80;1.00;;;;;;5030547;28;20283;-50
2023/05/13 00:48:48;;;;;;;23.97;11.60;;;9.80;1.00;;;;;;5030018;28;20435;-50
2023/05/13 00:51:14;;;;;;;21.70;12.20;;;9.80;1.00;;;;;;5031727;28;20473;-50
2023/05/13 00:53:40;;;;;;;20.83;12.13;;;9.80;1.00;;;;;;5030259;28;20449;-50
2023/05/13 00:56:06;;;;;;;16.20;11.57;;;9.80;1.00;;;;;;5030712;28;20214;-50
2023/05/13 00:58:32;;;;;;;18.97;11.43;;;9.80;1.00;;;;;;5032062;28;20572;-50
2023/05/13 01:01:16;;;;;;;14.80;11.33;;;9.80;1.00;;;;;;5028720;28;20180;-51
2023/05/13 01:03:44;;;;;;;19.50;12.13;;;9.80;1.00;;;;;;5029999;28;20266;-50
2023/05/13 01:06:15;;;;;;;16.00;11.80;;;9.80;1.00;;;;;;5031298;28;20437;-50
2023/05/13 01:09:17;;;;;;;15.67;12.40;;;9.80;1.00;;;;;;5030094;28;20453;-50
2023/05/13 01:11:44;;;;;;;17.37;12.00;;;9.80;1.00;;;;;;5028761;28;20438;-50
2023/05/13 01:14:20;;;;;;;16.67;12.43;;;9.70;99.90;;;;;;5026684;28;20449;-50
2023/05/13 01:16:55;;;;;;;15.53;12.20;;;9.70;99.90;;;;;;5023919;28;20473;-50
2023/05/13 01:19:52;;;;;;;19.97;11.70;;;9.70;99.90;;;;;;5027810;28;20833;-50
2023/05/13 01:22:17;;;;;;;23.70;13.13;;;9.80;99.90;;;;;;5023217;28;20462;-50
2023/05/13 01:24:44;;;;;;;16.03;12.00;;;9.80;98.90;;;;;;5026167;28;20446;-50
2023/05/13 01:27:10;;;;;;;14.80;12.40;;;9.70;74.50;;;;;;5028521;28;20584;-50
2023/05/13 01:29:36;;;;;;;14.20;11.07;;;9.70;92.20;;;;;;5026525;28;20442;-50
2023/05/13 01:32:03;;;;;;;17.40;12.40;;;9.60;78.50;;;;;;5028280;28;20989;-50
2023/05/13 01:34:30;;;;;;;14.40;11.33;;;9.60;98.80;;;;;;5025851;28;20439;-50
2023/05/13 01:36:56;;;;;;;21.40;12.47;;;9.50;99.90;;;;;;5027142;28;20605;-50
2023/05/13 01:39:23;;;;;;;18.63;12.40;;;9.50;99.90;;;;;;5029973;28;20802;-50
2023/05/13 01:41:48;;;;;;;16.87;13.73;;;9.50;99.90;;;;;;5026697;28;20942;-50
2023/05/13 01:44:14;;;;;;;20.40;13.70;;;9.40;99.90;;;;;;5027132;28;20476;-49
2023/05/13 01:46:42;;;;;;;19.10;12.97;;;9.30;99.90;;;;;;5026643;28;20195;-50
2023/05/13 01:49:09;;;;;;;17.23;12.70;;;9.30;99.90;;;;;;5028288;28;20187;-51
2023/05/13 01:51:35;;;;;;;18.80;12.13;;;9.20;99.90;;;;;;5027262;28;20473;-50
2023/05/13 01:54:01;;;;;;;19.60;11.80;;;9.20;1.00;;;;;;5026315;28;20435;-50
2023/05/13 01:56:26;;;;;;;19.03;14.23;;;9.10;1.00;;;;;;5029647;28;21005;-50
2023/05/13 01:58:52;;;;;;;23.00;14.03;;;9.10;1.00;;;;;;5025490;28;20199;-50
2023/05/13 02:01:18;;;;;;;15.37;12.23;;;9.00;1.00;;;;;;5027998;28;20196;-50
2023/05/13 02:03:44;;;;;;;18.10;13.47;;;9.00;1.00;;;;;;5026854;28;20199;-50
2023/05/13 02:06:09;;;;;;;17.03;12.60;;;8.90;28.90;;;;;;5025839;28;20186;-50
2023/05/13 02:08:35;;;;;;;15.53;12.90;;;8.90;99.90;;;;;;5026425;28;20435;-51
2023/05/13 02:11:01;;;;;;;16.33;12.33;;;8.80;99.90;;;;;;5024608;28;20670;-50
2023/05/13 02:13:26;;;;;;;19.47;13.47;;;8.80;99.90;;;;;;5026800;28;20195;-50
2023/05/13 02:15:53;;;;;;;18.97;14.33;;;8.70;99.90;;;;;;5026411;28;20215;-50
2023/05/13 02:18:18;;;;;;;17.00;13.63;;;8.70;1.00;;;;;;5027612;28;20192;-50
2023/05/13 02:20:45;;;;;;;19.27;13.37;;;8.60;1.00;;;;;;5023944;28;20469;-50
2023/05/13 02:23:11;;;;;;;21.97;13.93;;;8.60;1.00;;;;;;5028945;28;20195;-49
2023/05/13 02:25:36;;;;;;;19.53;13.93;;;8.50;1.00;;;;;;5025304;28;20504;-50
2023/05/13 02:28:02;;;;;;;22.57;15.60;;;8.50;99.90;;;;;;5029101;28;20275;-50
2023/05/13 02:30:28;;;;;;;21.30;12.90;;;8.50;99.90;;;;;;5027948;28;24284;-50
2023/05/13 02:32:55;;;;;;;19.17;13.93;;;8.50;1.00;;;;;;5026432;28;20528;-50
2023/05/13 02:35:21;;;;;;;19.57;13.13;;;8.40;1.00;;;;;;5026004;28;20277;-50
2023/05/13 02:37:47;;;;;;;15.37;13.23;;;8.40;1.00;;;;;;5026352;28;20760;-50
2023/05/13 02:40:13;;;;;;;18.00;14.03;;;8.40;1.00;;;;;;5026903;28;20448;-50
2023/05/13 02:42:39;;;;;;;22.90;15.50;;;8.40;1.00;;;;;;5026292;28;20442;-50
2023/05/13 02:45:05;;;;;;;19.20;14.77;;;8.30;1.00;;;;;;5027643;28;20495;-50
2023/05/13 02:47:30;;;;;;;20.77;16.00;;;8.30;15.60;;;;;;5026285;28;20548;-50
2023/05/13 02:49:56;;;;;;;22.33;14.17;;;8.30;99.90;;;;;;5025266;28;20509;-49
2023/05/13 02:52:22;;;;;;;21.33;15.70;;;8.20;1.00;;;;;;5027221;28;20640;-50
2023/05/13 02:54:47;;;;;;;24.63;14.93;;;8.20;1.00;;;;;;5024777;28;20654;-50
2023/05/13 02:57:13;;;;;;;20.50;15.57;;;8.20;82.00;;;;;;5026422;28;20272;-49
2023/05/13 02:59:39;;;;;;;17.37;14.70;;;8.10;99.90;;;;;;5024773;28;20207;-50
2023/05/13 03:02:04;;;;;;;20.80;15.77;;;8.10;99.90;;;;;;5027687;28;20666;-50
2023/05/13 03:04:30;;;;;;;23.03;15.03;;;8.10;1.00;;;;;;5025748;28;20202;-50
2023/05/13 03:06:55;;;;;;;19.57;15.20;;;8.10;1.00;;;;;;5026761;28;20270;-49
2023/05/13 03:09:21;;;;;;;30.53;17.43;;;8.10;95.10;;;;;;5025639;28;20248;-50
2023/05/13 03:11:47;;;;;;;20.83;16.47;;;8.10;1.00;;;;;;5025919;28;20192;-51
2023/05/13 03:14:13;;;;;;;20.00;16.13;;;8.10;1.00;;;;;;5026268;28;20279;-49
2023/05/13 03:16:38;;;;;;;28.23;16.77;;;8.00;99.90;;;;;;5023431;28;20593;-50
2023/05/13 03:19:04;;;;;;;26.80;18.47;;;8.00;99.90;;;;;;5026419;28;20228;-50
2023/05/13 03:21:29;;;;;;;20.43;15.10;;;8.00;99.90;;;;;;5025506;28;20209;-50
2023/05/13 03:23:55;;;;;;;20.23;16.70;;;8.00;1.00;;;;;;5025601;28;20206;-50
2023/05/13 03:26:21;;;;;;;24.53;16.57;;;8.00;99.90;;;;;;5024653;28;20184;-50
2023/05/13 03:28:46;;;;;;;24.20;16.57;;;8.00;1.00;;;;;;5024241;28;20207;-50
2023/05/13 03:31:12;;;;;;;21.47;16.70;;;8.10;99.90;;;;;;5025716;28;20251;-50
2023/05/13 03:33:38;;;;;;;20.60;15.87;;;8.00;99.90;;;;;;5024098;28;20552;-50
2023/05/13 03:36:04;;;;;;;22.33;16.60;;;8.10;1.00;;;;;;5023377;28;20269;-49
2023/05/13 03:38:30;;;;;;;21.27;17.43;;;8.00;1.00;;;;;;5022805;28;20183;-49
2023/05/13 03:40:56;;;;;;;27.63;15.83;;;8.00;99.90;;;;;;5027374;28;20434;-50
2023/05/13 03:43:22;;;;;;;21.97;16.50;;;8.00;94.00;;;;;;5023513;28;20184;-50
2023/05/13 03:45:49;;;;;;;32.87;18.07;;;8.00;99.90;;;;;;5024025;28;20187;-50
2023/05/13 03:48:14;;;;;;;19.37;16.03;;;8.00;1.00;;;;;;5024048;28;20203;-50
2023/05/13 03:50:40;;;;;;;26.43;17.43;;;8.00;1.00;;;;;;5024680;28;20470;-50
2023/05/13 03:53:06;;;;;;;28.80;18.43;;;8.00;1.00;;;;;;5024503;28;20214;-50
2023/05/13 03:55:32;;;;;;;26.83;19.27;;;8.00;90.00;;;;;;5023651;28;20215;-50
2023/05/13 03:57:57;;;;;;;24.40;17.83;;;8.00;99.90;;;;;;5025327;28;20199;-50
2023/05/13 04:00:23;;;;;;;22.93;17.80;;;8.10;99.90;;;;;;5024072;28;20194;-49
2023/05/13 04:02:48;;;;;;;25.20;18.23;;;8.10;1.00;;;;;;5025243;28;20194;-50
2023/05/13 04:05:14;;;;;;;30.80;20.80;;;8.10;12.80;;;;;;5024153;28;20342;-50
2023/05/13 04:07:40;;;;;;;27.77;19.30;;;8.20;99.90;;;;;;5024988;28;20270;-50
2023/05/13 04:10:06;;;;;;;30.40;19.40;;;8.20;99.90;;;;;;5023601;28;20195;-49
2023/05/13 04:12:32;;;;;;;23.30;17.80;;;8.30;99.90;;;;;;5024072;28;20691;-50
2023/05/13 04:14:58;;;;;;;30.30;20.90;;;8.30;99.90;;;;;;5025601;28;20466;-49
2023/05/13 04:17:24;;;;;;;26.97;20.33;;;8.30;1.00;;;;;;5023618;28;20267;-50
2023/05/13 04:19:53;;;;;;;28.13;19.50;;;8.40;1.00;;;;;;5026059;28;20438;-50
2023/05/13 04:22:20;;;;;;;29.50;20.43;;;8.50;1.00;;;;;;5023537;28;20199;-49
2023/05/13 04:24:45;;;;;;;33.50;22.90;;;8.60;99.90;;;;;;5023339;28;20449;-50
2023/05/13 04:27:11;;;;;;;28.47;20.57;;;8.60;1.00;;;;;;5024704;28;20442;-50
2023/05/13 04:29:37;;;;;;;28.63;21.37;;;8.70;99.90;;;;;;5022899;28;20190;-50
2023/05/13 04:32:02;;;;;;;29.13;20.20;;;8.80;99.90;;;;;;5023783;28;20628;-50
2023/05/13 04:34:28;;;;;;;27.80;19.40;;;8.90;1.00;;;;;;5024785;28;20274;-50
2023/05/13 04:36:53;;;;;;;33.53;21.23;;;8.90;99.90;;;;;;5025617;28;20293;-50
2023/05/13 04:39:19;;;;;;;30.83;21.87;;;9.00;1.00;;;;;;5023383;28;20189;-49
2023/05/13 04:41:45;;;;;;;31.33;22.00;;;9.10;1.00;;;;;;5024055;28;20206;-51
2023/05/13 04:44:10;;;;;;;25.13;19.50;;;9.10;1.00;;;;;;5026671;28;20183;-50
2023/05/13 04:46:39;;;;;;;29.17;21.77;;;9.30;99.90;;;;;;5026894;28;20258;-50
2023/05/13 04:49:05;;;;;;;26.27;20.17;;;9.40;1.00;;;;;;5028235;28;20564;-49
2023/05/13 04:51:31;;;;;;;26.60;19.20;;;9.50;99.20;;;;;;5025574;28;20489;-50
2023/05/13 04:53:57;;;;;;;28.27;19.97;;;9.70;99.90;;;;;;5030138;28;20191;-49
2023/05/13 04:56:23;;;;;;;24.73;19.83;;;9.80;1.00;;;;;;5025279;28;20490;-50
2023/05/13 04:58:48;;;;;;;26.40;19.63;;;10.00;1.00;;;;;;5027895;28;20491;-50
2023/05/13 05:01:14;;;;;;;25.53;20.57;;;10.10;78.20;;;;;;5028041;28;20195;-50
2023/05/13 05:03:40;;;;;;;28.00;18.50;;;10.30;99.90;;;;;;5027538;28;20644;-50
2023/05/13 05:06:05;;;;;;;27.67;19.20;;;10.40;99.90;;;;;;5028597;28;20202;-50
2023/05/13 05:08:31;;;;;;;24.00;17.50;;;10.60;1.00;;;;;;5028357;28;20195;-50
2023/05/13 05:10:59;;;;;;;27.93;19.33;;;10.60;99.90;;;;;;5029942;28;20269;-50
2023/05/13 05:13:24;;;;;;;23.30;16.87;;;10.70;1.00;;;;;;5028172;28;21451;-50
2023/05/13 05:15:50;;;;;;;25.90;17.60;;;10.90;1.00;;;;;;5025941;28;20477;-51
2023/05/13 05:18:15;;;;;;;24.43;17.80;;;11.10;99.90;;;;;;5028082;28;20645;-50
2023/05/13 05:20:41;;;;;;;20.80;16.77;;;11.30;99.90;;;;;;5026320;28;20184;-50
2023/05/13 05:23:07;;;;;;;22.80;17.10;;;11.40;1.00;;;;;;5028482;28;20551;-50
2023/05/13 05:25:33;;;;;;;20.63;16.63;;;11.60;1.00;;;;;;5026885;28;20196;-51
2023/05/13 05:27:59;;;;;;;21.10;17.13;;;11.70;1.00;;;;;;5028631;28;20461;-50
2023/05/13 05:30:24;;;;;;;21.50;16.40;;;12.00;99.90;;;;;;5025398;28;20196;-50
2023/05/13 05:32:50;;;;;;;22.33;16.67;;;12.20;99.90;;;;;;5028974;28;20190;-51
2023/05/13 05:35:18;;;;;;;18.43;15.30;;;12.30;99.90;;;;;;5026403;28;20188;-50
2023/05/13 05:37:44;;;;;;;23.10;15.90;;;12.60;99.60;;;;;;5027243;28;20226;-50
2023/05/13 05:40:10;;;;;;;18.40;14.90;;;12.80;92.60;;;;;;5026714;28;20462;-50
2023/05/13 05:42:36;;;;;;;17.97;14.17;;;13.10;49.70;;;;;;5026421;28;20206;-50
2023/05/13 05:45:02;;;;;;;17.77;14.10;;;13.40;47.90;;;;;;5030417;28;20445;-50
2023/05/13 05:47:28;;;;;;;17.00;13.60;;;13.60;8.30;;;;;;5028906;28;20829;-49
2023/05/13 05:49:53;;;;;;;18.00;13.40;;;13.90;1.00;;;;;;5025368;28;20465;-51
2023/05/13 05:52:19;;;;;;;19.87;14.13;;;14.10;1.00;;;;;;5027480;28;20191;-51
2023/05/13 05:54:44;;;;;;;18.30;13.73;;;14.30;1.00;;;;;;5026532;28;20624;-50
2023/05/13 05:57:10;;;;;;;15.30;12.40;;;14.50;1.00;;;;;;5031309;28;20212;-50
2023/05/13 05:59:36;;;;;;;20.70;13.67;;;14.60;1.00;;;;;;5025272;28;20184;-50
2023/05/13 06:02:01;;;;;;;16.80;12.77;;;14.80;1.00;;;;;;5025918;28;20274;-50
2023/05/13 06:04:27;;;;;;;15.40;12.60;;;15.00;1.00;;;;;;5027198;28;20203;-50
2023/05/13 06:06:52;;;;;;;16.50;12.27;;;15.30;1.00;;;;;;5026956;28;20323;-50
2023/05/13 06:09:18;;;;;;;21.93;11.70;;;15.40;1.00;;;;;;5026754;28;20677;-50
2023/05/13 06:11:43;;;;;;;17.10;12.40;;;15.60;1.00;;;;;;5025429;28;20292;-50
2023/05/13 06:14:09;;;;;;;15.50;11.53;;;15.80;1.00;;;;;;5026905;28;20193;-50
2023/05/13 06:16:35;;;;;;;20.20;12.23;;;16.00;1.00;;;;;;5026243;28;20266;-50
2023/05/13 06:19:00;;;;;;;18.73;11.47;;;16.10;1.00;;;;;;5027817;28;20579;-50
2023/05/13 06:21:26;;;;;;;17.10;12.50;;;16.10;1.00;;;;;;5023272;28;20268;-50
2023/05/13 06:23:51;;;;;;;18.93;10.93;;;16.40;1.00;;;;;;5026405;28;20194;-50
2023/05/13 06:26:17;;;;;;;15.20;10.97;;;16.60;1.00;;;;;;5025357;28;20187;-50
2023/05/13 06:28:42;;;;;;;15.10;10.10;;;16.80;1.00;;;;;;5025264;28;20950;-51
2023/05/13 06:31:08;;;;;;;13.57;10.20;;;17.10;1.00;;;;;;5026381;28;20257;-50
2023/05/13 06:33:33;;;;;;;14.80;10.20;;;17.30;1.00;;;;;;5024065;28;20646;-51
2023/05/13 06:35:59;;;;;;;12.30;9.80;;;17.60;1.00;;;;;;5028319;28;20217;-51
2023/05/13 06:38:25;;;;;;;13.60;8.93;;;17.80;1.00;;;;;;5023988;28;20273;-52
2023/05/13 06:40:50;;;;;;;11.93;9.10;;;17.90;1.00;;;;;;5026842;28;20194;-51
2023/05/13 06:43:16;;;;;;;15.03;9.23;;;18.10;1.00;;;;;;5026060;28;20893;-52
2023/05/13 06:45:42;;;;;;;12.17;8.50;;;18.30;1.00;;;;;;5026680;28;20562;-52
2023/05/13 06:48:08;;;;;;;11.37;8.90;;;18.50;1.00;;;;;;5025117;28;20554;-52
2023/05/13 06:50:33;;;;;;;16.50;9.13;;;18.70;1.00;;;;;;5024591;28;20325;-52
2023/05/13 06:52:59;;;;;;;14.90;8.40;;;18.90;1.00;;;;;;5022858;28;20710;-51
2023/05/13 06:55:25;;;;;;;13.50;7.70;;;19.20;1.00;;;;;;5024505;28;20210;-52
2023/05/13 06:57:50;;;;;;;9.40;7.03;;;19.50;1.00;;;;;;5025426;28;20565;-52
2023/05/13 07:00:16;;;;;;;13.93;7.60;;;19.60;1.00;;;;;;5026560;28;20193;-53
2023/05/13 07:02:42;;;;;;;16.00;7.87;;;19.80;1.00;;;;;;5025576;28;20193;-53
2023/05/13 07:05:09;;;;;;;12.73;7.50;;;20.10;1.00;;;;;;5025266;28;20451;-52
2023/05/13 07:07:35;;;;;;;17.47;7.87;;;20.30;1.00;;;;;;5023391;28;20203;-52
2023/05/13 07:10:00;;;;;;;12.07;7.43;;;20.60;1.00;;;;;;5025938;28;21035;-51
2023/05/13 07:12:26;;;;;;;9.90;7.40;;;20.70;1.00;;;;;;5023786;28;20669;-52
2023/05/13 07:14:52;;;;;;;9.53;7.70;;;20.80;1.00;;;;;;5024532;28;20657;-53
2023/05/13 07:17:17;;;;;;;20.37;7.53;;;20.90;1.00;;;;;;5026021;28;20226;-52
2023/05/13 07:19:43;;;;;;;9.60;7.07;;;21.10;1.00;;;;;;5026454;28;20214;-53
2023/05/13 07:22:08;;;;;;;12.40;6.10;;;21.20;1.00;;;;;;5022582;28;20187;-53
2023/05/13 07:24:34;;;;;;;11.03;6.43;;;21.40;1.00;;;;;;5020530;28;20229;-53
2023/05/13 07:27:00;;;;;;;12.37;6.53;;;21.60;1.00;;;;;;5024923;28;20214;-52
2023/05/13 07:29:26;;;;;;;13.43;7.20;;;21.80;1.00;;;;;;5024983;28;20240;-52
2023/05/13 07:31:51;;;;;;;10.60;6.73;;;21.90;1.00;;;;;;5026531;28;20190;-53
2023/05/13 07:34:17;;;;;;;9.57;6.20;;;22.10;1.00;;;;;;5023744;28;20197;-52
2023/05/13 07:36:43;;;;;;;7.73;5.70;;;22.40;1.00;;;;;;5025305;28;20220;-53
2023/05/13 07:39:08;;;;;;;7.97;6.37;;;22.60;1.00;;;;;;5027481;28;20199;-53
2023/05/13 07:41:35;;;;;;;9.43;6.37;;;22.80;1.00;;;;;;5023801;28;20198;-53
2023/05/13 07:44:01;;;;;;;10.20;6.37;;;22.90;1.00;;;;;;5026351;28;20208;-52
2023/05/13 07:46:26;;;;;;;11.40;6.43;;;23.00;1.00;;;;;;5022490;28;21066;-52
2023/05/13 07:48:52;;;;;;;6.27;5.60;;;23.30;1.00;;;;;;5025815;28;20592;-53
2023/05/13 07:51:18;;;;;;;11.40;5.80;;;23.40;1.00;;;;;;5024622;28;20241;-53
2023/05/13 07:53:45;;;;;;;12.70;5.97;;;23.70;1.00;;;;;;5031179;28;20216;-52
2023/05/13 07:56:11;;;;;;;8.67;5.63;;;23.80;1.00;;;;;;5033219;28;20558;-51
2023/05/13 07:58:37;;;;;;;11.00;5.70;;;23.60;1.00;;;;;;5027859;28;20437;-50
2023/05/13 08:01:04;;;;;;;8.23;6.07;;;23.70;1.00;;;;;;5022152;28;20216;-51
2023/05/13 08:03:29;;;;;;;8.67;6.00;;;23.70;1.00;;;;;;5022295;28;20193;-51
2023/05/13 08:05:55;;;;;;;13.13;6.20;;;23.90;1.00;;;;;;5025490;28;20460;-51
2023/05/13 08:08:21;;;;;;;6.97;5.73;;;23.90;1.00;;;;;;5023496;28;20637;-51
2023/05/13 08:10:47;;;;;;;14.83;5.80;;;24.10;1.00;;;;;;5024144;28;20193;-51
2023/05/13 08:13:12;;;;;;;6.37;5.30;;;24.40;1.00;;;;;;5021207;28;20292;-51
2023/05/13 08:15:38;;;;;;;5.80;5.07;;;24.80;1.00;;;;;;5020594;28;20226;-51
2023/05/13 08:18:04;;;;;;;12.80;6.00;;;25.00;99.90;;;;;;5024775;28;20209;-51
2023/05/13 08:20:29;;;;;;;10.27;5.93;;;24.90;99.90;;;;;;5028686;28;20188;-51
2023/05/13 08:22:57;;;;;;;8.47;5.33;;;25.10;99.90;;;;;;5028122;28;20205;-51
2023/05/13 08:25:23;;;;;;;15.60;5.40;;;25.30;99.90;;;;;;5027248;28;20199;-51
2023/05/13 08:27:49;;;;;;;15.70;6.07;;;25.50;99.90;;;;;;5027771;28;20449;-51
2023/05/13 08:30:15;;;;;;;9.00;5.60;;;25.50;99.90;;;;;;5027812;28;20519;-51
2023/05/13 08:32:41;;;;;;;8.57;5.40;;;25.60;99.90;;;;;;5027467;28;20183;-51
2023/05/13 08:35:07;;;;;;;9.50;5.67;;;25.70;99.90;;;;;;5027784;28;20949;-51
2023/05/13 08:37:32;;;;;;;7.03;5.30;;;25.70;99.90;;;;;;5027445;28;20225;-52
2023/05/13 08:40:00;;;;;;;8.90;4.73;;;26.00;99.90;;;;;;5028326;28;20183;-51
2023/05/13 08:42:29;;;;;;;8.03;5.03;;;26.30;99.90;;;;;;5026021;28;20188;-51
2023/05/13 08:44:55;;;;;;;8.63;5.20;;;26.40;99.90;;;;;;5025191;28;20452;-51
2023/05/13 08:47:53;;;;;;;8.43;5.20;;;26.50;99.90;;;;;;5028329;28;20617;-50
2023/05/13 08:50:19;;;;;;;8.70;5.10;;;26.50;99.90;;;;;;5027177;28;20242;-51
2023/05/13 08:52:45;;;;;;;7.07;4.53;;;26.40;99.90;;;;;;5029093;28;20468;-52
2023/05/13 08:55:11;;;;;;;9.13;5.00;;;26.60;99.90;;;;;;5028215;28;20964;-51
2023/05/13 08:57:36;;;;;;;11.50;4.50;;;26.70;99.90;;;;;;5025625;28;20219;-51
2023/05/13 09:00:04;;;;;;;13.53;4.30;;;26.90;99.90;;;;;;5028925;28;20437;-51
2023/05/13 09:02:29;;;;;;;6.83;5.07;;;27.20;99.90;;;;;;5028879;28;20192;-52
2023/05/13 09:05:01;;;;;;;6.20;5.10;;;27.20;99.90;;;;;;5029789;28;20910;-51
2023/05/13 09:07:29;;;;;;;6.03;4.67;;;27.30;99.90;;;;;;5027272;28;20552;-49
2023/05/13 09:09:55;;;;;;;8.70;4.90;;;27.40;99.90;;;;;;5026796;28;20438;-50
2023/05/13 09:12:44;;;;;;;5.93;4.80;;;27.60;99.90;;;;;;5027451;28;20442;-52
2023/05/13 09:15:11;;;;;;;6.00;4.43;;;27.90;99.90;;;;;;5029080;28;20232;-49
2023/05/13 09:17:41;;;;;;;8.97;4.57;;;27.90;99.90;;;;;;5027201;28;20488;-50
2023/05/13 09:20:11;;;;;;;10.90;4.80;;;27.90;99.90;;;;;;5027833;28;20447;-51
2023/05/13 09:22:52;;;;;;;10.30;4.40;;;28.00;99.90;;;;;;5034218;28;20833;-52
2023/05/13 09:25:19;;;;;;;5.97;4.17;;;27.80;99.90;;;;;;5030388;28;20484;-50
2023/05/13 09:27:52;;;;;;;12.73;4.60;;;27.60;99.90;;;;;;5031826;28;20568;-49
2023/05/13 09:30:19;;;;;;;6.53;4.37;;;27.50;99.90;;;;;;5032934;28;21091;-49
2023/05/13 09:33:07;;;;;;;8.23;4.10;;;27.50;99.90;;;;;;5030496;28;20442;-49
2023/05/13 09:35:34;;;;;;;9.20;4.30;;;27.50;99.90;;;;;;5025845;28;20456;-49
2023/05/13 09:38:00;;;;;;;6.83;4.60;;;27.40;99.90;;;;;;5026900;28;20865;-48
2023/05/13 09:40:25;;;;;;;8.30;4.77;;;27.40;99.90;;;;;;5025761;28;20484;-49
2023/05/13 09:42:57;;;;;;;6.73;4.60;;;27.80;99.90;;;;;;5025445;28;20184;-49
2023/05/13 09:45:23;;;;;;;5.20;4.70;;;27.80;99.90;;;;;;5034369;28;20200;-48
2023/05/13 09:47:53;;;;;;;8.50;4.50;;;27.80;99.90;;;;;;5032027;28;20462;-50
2023/05/13 09:50:20;;;;;;;9.45;4.45;;;27.80;99.90;;;;;;5014840;28;20485;-50
2023/05/13 09:52:46;;;;;;;7.60;4.40;;;27.60;99.90;;;;;;5021680;28;20901;-50
2023/05/13 09:55:11;;;;;;;5.00;4.50;;;27.50;99.90;;;;;;5033604;28;20262;-48
2023/05/13 09:57:38;;;;;;;8.33;5.00;;;27.70;99.90;;;;;;5032838;28;20691;-48
2023/05/13 10:00:05;;;;;;;6.77;4.30;;;28.20;99.90;;;;;;5028612;28;20198;-48
2023/05/13 10:02:31;;;;;;;8.23;4.60;;;28.20;99.90;;;;;;5027789;28;20434;-48
2023/05/13 10:04:57;;;;;;;11.77;5.03;;;28.20;99.90;;;;;;5029079;28;20483;-48
2023/05/13 10:07:24;;;;;;;9.97;5.00;;;28.20;99.90;;;;;;5026698;28;20434;-49
2023/05/13 10:09:57;;;;;;;13.73;4.60;;;28.20;99.90;;;;;;5022289;28;20778;-49
2023/05/13 10:12:24;;;;;;;9.57;5.17;;;28.40;99.90;;;;;;5027412;28;20532;-49
2023/05/13 10:14:51;;;;;;;5.90;4.90;;;28.60;99.90;;;;;;5025765;28;20454;-50
2023/05/13 10:17:20;;;;;;;7.57;4.40;;;28.80;99.90;;;;;;5026737;28;20441;-49
2023/05/13 10:19:47;;;;;;;7.67;4.40;;;28.60;99.90;;;;;;5026887;28;20191;-50
2023/05/13 10:22:13;;;;;;;9.48;4.38;;;28.70;99.90;;;;;;5028549;28;20429;-49
2023/05/13 10:24:41;;;;;;;10.20;4.40;;;28.90;99.90;;;;;;5023264;28;20445;-50
2023/05/13 10:27:07;;;;;;;9.80;4.70;;;29.10;99.90;;;;;;5031180;28;20564;-49
2023/05/13 10:29:36;;;;;;;4.57;4.10;;;29.30;99.90;;;;;;5034196;28;20778;-49
2023/05/13 10:32:02;;;;;;;4.73;3.93;;;29.60;99.90;;;;;;5035085;28;20270;-49
2023/05/13 10:34:30;;;;;;;8.97;4.80;;;29.80;99.90;;;;;;5034748;28;20444;-49
2023/05/13 10:37:32;;;;;;;4.93;4.17;;;29.80;99.90;;;;;;5034647;28;20490;-49
2023/05/13 10:40:16;;;;;;;10.13;4.70;;;29.70;99.90;;;;;;5034597;28;20437;-49
2023/05/13 10:42:46;;;;;;;4.33;3.93;;;30.00;99.90;;;;;;5033435;28;20772;-50
2023/05/13 10:45:15;;;;;;;10.93;4.80;;;30.00;99.90;;;;;;5034550;28;20417;-50
2023/05/13 10:47:41;;;;;;;7.10;4.10;;;29.80;99.90;;;;;;5034230;28;20418;-49
2023/05/13 10:50:28;;;;;;;10.90;4.50;;;29.90;99.90;;;;;;5034338;28;20477;-49
2023/05/13 10:52:57;;;;;;;5.53;4.57;;;29.60;99.90;;;;;;5034216;28;20175;-49
2023/05/13 10:55:25;;;;;;;4.60;4.00;;;29.80;99.90;;;;;;5033962;28;20574;-49
2023/05/13 10:58:09;;;;;;;10.00;4.90;;;30.40;99.90;;;;;;5034419;28;20441;-49
2023/05/13 11:00:36;;;;;;;5.40;4.17;;;30.50;99.90;;;;;;5034236;28;20422;-49
2023/05/13 11:03:34;;;;;;;4.87;4.37;;;30.50;99.90;;;;;;5034271;28;20418;-49
2023/05/13 11:06:13;;;;;;;6.23;4.17;;;30.20;99.90;;;;;;5022249;28;20500;-49
2023/05/13 11:08:43;;;;;;;6.80;4.23;;;30.20;99.90;;;;;;5034137;28;20406;-49
2023/05/13 11:11:25;;;;;;;12.17;4.00;;;30.10;99.90;;;;;;5034223;28;20776;-49
2023/05/13 11:13:55;;;;;;;6.60;4.27;;;30.10;99.90;;;;;;5034104;28;20405;-49
2023/05/13 11:16:22;;;;;;;11.73;4.30;;;30.40;99.90;;;;;;5033992;28;20812;-49
2023/05/13 11:18:50;;;;;;;5.93;3.83;;;30.70;99.90;;;;;;5033880;28;20418;-49
2023/05/13 11:21:15;;;;;;;5.73;3.97;;;30.90;99.90;;;;;;5033952;28;20410;-49
2023/05/13 11:24:05;;;;;;;5.90;3.90;;;30.70;99.90;;;;;;5033634;28;20937;-49
2023/05/13 11:26:50;;;;;;;7.83;3.87;;;29.80;99.90;;;;;;5033688;28;20199;-50
2023/05/13 11:29:28;;;;;;;5.97;3.80;;;30.00;99.90;;;;;;5033772;28;20414;-49
2023/05/13 11:31:56;;;;;;;5.10;3.93;;;30.10;99.90;;;;;;5033813;28;20493;-50
2023/05/13 11:34:22;;;;;;;9.73;4.10;;;30.30;99.90;;;;;;5033754;28;20472;-50
2023/05/13 11:36:50;;;;;;;6.87;4.80;;;30.60;99.90;;;;;;5033557;28;20470;-50
2023/05/13 11:39:21;;;;;;;9.83;4.03;;;30.70;99.90;;;;;;5033437;28;20183;-49
2023/05/13 11:41:49;;;;;;;4.50;4.03;;;30.10;99.90;;;;;;5033311;28;20973;-49
2023/05/13 11:44:16;;;;;;;5.30;3.80;;;29.80;99.90;;;;;;5033343;28;21129;-49
2023/05/13 11:46:48;;;;;;;6.83;4.20;;;29.60;99.90;;;;;;5033557;28;20476;-49
2023/05/13 11:49:32;;;;;;;9.60;4.13;;;30.30;99.90;;;;;;5033558;28;20521;-49
2023/05/13 11:52:11;;;;;;;5.23;4.00;;;31.20;99.90;;;;;;5033533;28;20468;-49
2023/05/13 11:54:52;;;;;;;10.33;4.53;;;31.50;99.90;;;;;;5033255;28;20417;-49
2023/05/13 11:57:22;;;;;;;7.53;4.53;;;31.70;99.90;;;;;;5033074;28;20462;-49
2023/05/13 12:00:01;;;;;;;6.33;4.03;;;31.80;99.90;;;;;;5033047;28;20413;-49
2023/05/13 12:02:28;;;;;;;5.83;4.20;;;31.80;99.90;;;;;;5033257;28;20419;-49
2023/05/13 12:04:54;;;;;;;6.10;4.50;;;31.90;99.90;;;;;;5033406;28;20843;-49
2023/05/13 12:07:24;;;;;;;5.80;4.37;;;31.40;99.90;;;;;;5033332;28;20525;-49
2023/05/13 12:09:51;;;;;;;6.23;4.10;;;30.50;99.90;;;;;;5033412;28;20414;-49
2023/05/13 12:12:18;;;;;;;7.07;4.30;;;28.90;99.90;;;;;;5033412;28;20422;-49
2023/05/13 12:14:51;;;;;;;8.83;4.80;;;27.70;99.90;;;;;;5033295;28;20509;-49
2023/05/13 12:17:18;;;;;;;4.80;4.30;;;26.90;99.90;;;;;;5033041;28;20461;-49
2023/05/13 12:20:11;;;;;;;9.10;4.80;;;26.20;99.90;;;;;;5033252;28;20422;-49
2023/05/13 12:22:48;;;;;;;5.73;4.40;;;25.40;99.90;;;;;;5033268;28;20437;-49
2023/05/13 12:25:46;;;;;;;8.03;4.20;;;24.80;99.90;;;;;;5033313;28;20818;-49
2023/05/13 12:28:18;;;;;;;6.30;4.57;;;24.30;99.90;;;;;;5033231;28;20421;-49
2023/05/13 12:30:55;;;;;;;6.90;4.23;;;24.00;99.90;;;;;;5032891;28;20948;-49
2023/05/13 12:33:26;;;;;;;8.03;4.40;;;23.70;99.90;;;;;;5033182;28;20420;-49
2023/05/13 12:35:54;;;;;;;6.27;4.43;;;23.70;99.90;;;;;;5033083;28;20507;-49
2023/05/13 12:38:22;;;;;;;11.03;4.33;;;23.70;99.90;;;;;;5033120;28;20429;-49
2023/05/13 12:40:49;;;;;;;8.17;5.17;;;23.80;99.90;;;;;;5033063;28;20445;-49
2023/05/13 12:43:19;;;;;;;6.57;4.43;;;23.70;99.90;;;;;;5033034;28;20487;-49
2023/05/13 12:45:46;;;;;;;6.60;4.33;;;23.50;99.90;;;;;;5032744;28;20823;-49